sensor_id;sensor_type;location;lat;lon;timestamp;P1;durP1;ratioP1;P2;durP2;ratioP2
75616;SDS011;64200;55.426;37.758;2024-01-30T00:02:31;8.80;;;4.20;;
75616;SDS011;64200;55.426;37.758;2024-01-30T00:07:32;13.27;;;4.60;;
75616;SDS011;64200;55.426;37.758;2024-01-30T00:12:32;10.32;;;4.22;;
75616;SDS011;64200;55.426;37.758;2024-01-30T00:17:33;9.97;;;5.17;;
75616;SDS011;64200;55.426;37.758;2024-01-30T00:22:33;13.60;;;5.37;;
75616;SDS011;64200;55.426;37.758;2024-01-30T00:27:34;8.57;;;3.70;;
75616;SDS011;64200;55.426;37.758;2024-01-30T00:32:35;10.63;;;4.33;;
75616;SDS011;64200;55.426;37.758;2024-01-30T00:37:35;9.85;;;3.85;;
75616;SDS011;64200;55.426;37.758;2024-01-30T00:42:36;7.03;;;3.88;;
75616;SDS011;64200;55.426;37.758;2024-01-30T00:47:36;9.33;;;4.07;;
75616;SDS011;64200;55.426;37.758;2024-01-30T00:52:37;12.40;;;4.03;;
75616;SDS011;64200;55.426;37.758;2024-01-30T00:57:39;10.75;;;4.47;;
75616;SDS011;64200;55.426;37.758;2024-01-30T01:02:39;9.57;;;4.57;;
75616;SDS011;64200;55.426;37.758;2024-01-30T01:07:40;10.37;;;4.77;;
75616;SDS011;64200;55.426;37.758;2024-01-30T01:12:42;8.88;;;3.83;;
75616;SDS011;64200;55.426;37.758;2024-01-30T01:17:43;10.73;;;4.75;;
75616;SDS011;64200;55.426;37.758;2024-01-30T01:22:44;7.57;;;3.13;;
75616;SDS011;64200;55.426;37.758;2024-01-30T01:27:44;10.40;;;4.85;;
75616;SDS011;64200;55.426;37.758;2024-01-30T01:32:51;10.48;;;5.32;;
75616;SDS011;64200;55.426;37.758;2024-01-30T01:38:02;8.48;;;3.80;;
75616;SDS011;64200;55.426;37.758;2024-01-30T01:43:03;12.45;;;4.80;;
75616;SDS011;64200;55.426;37.758;2024-01-30T01:48:05;13.23;;;4.75;;
75616;SDS011;64200;55.426;37.758;2024-01-30T01:53:07;13.50;;;4.80;;
75616;SDS011;64200;55.426;37.758;2024-01-30T01:58:08;8.63;;;4.57;;
75616;SDS011;64200;55.426;37.758;2024-01-30T02:03:09;11.52;;;4.88;;
75616;SDS011;64200;55.426;37.758;2024-01-30T02:08:11;12.27;;;5.82;;
75616;SDS011;64200;55.426;37.758;2024-01-30T02:13:12;9.07;;;4.55;;
75616;SDS011;64200;55.426;37.758;2024-01-30T02:18:12;12.50;;;4.60;;
75616;SDS011;64200;55.426;37.758;2024-01-30T02:23:13;11.40;;;4.67;;
75616;SDS011;64200;55.426;37.758;2024-01-30T02:28:16;14.95;;;5.30;;
75616;SDS011;64200;55.426;37.758;2024-01-30T02:33:16;10.53;;;5.20;;
75616;SDS011;64200;55.426;37.758;2024-01-30T02:38:17;12.57;;;5.47;;
75616;SDS011;64200;55.426;37.758;2024-01-30T02:43:17;14.00;;;5.97;;
75616;SDS011;64200;55.426;37.758;2024-01-30T02:48:18;14.50;;;5.70;;
75616;SDS011;64200;55.426;37.758;2024-01-30T02:53:18;11.73;;;5.35;;
75616;SDS011;64200;55.426;37.758;2024-01-30T02:58:19;11.03;;;5.03;;
75616;SDS011;64200;55.426;37.758;2024-01-30T03:03:19;11.37;;;5.20;;
75616;SDS011;64200;55.426;37.758;2024-01-30T03:08:20;11.90;;;5.53;;
75616;SDS011;64200;55.426;37.758;2024-01-30T03:13:21;15.77;;;7.43;;
75616;SDS011;64200;55.426;37.758;2024-01-30T03:18:23;11.25;;;4.72;;
75616;SDS011;64200;55.426;37.758;2024-01-30T03:23:24;13.00;;;5.77;;
75616;SDS011;64200;55.426;37.758;2024-01-30T03:28:24;11.77;;;5.23;;
75616;SDS011;64200;55.426;37.758;2024-01-30T03:33:26;10.85;;;5.03;;
75616;SDS011;64200;55.426;37.758;2024-01-30T03:38:28;10.88;;;5.40;;
75616;SDS011;64200;55.426;37.758;2024-01-30T03:43:28;12.27;;;4.73;;
75616;SDS011;64200;55.426;37.758;2024-01-30T03:48:29;14.65;;;5.65;;
75616;SDS011;64200;55.426;37.758;2024-01-30T03:53:30;12.10;;;5.85;;
75616;SDS011;64200;55.426;37.758;2024-01-30T03:58:31;11.10;;;4.95;;
75616;SDS011;64200;55.426;37.758;2024-01-30T04:03:31;10.10;;;4.60;;
75616;SDS011;64200;55.426;37.758;2024-01-30T04:08:32;12.57;;;4.80;;
75616;SDS011;64200;55.426;37.758;2024-01-30T04:13:33;11.30;;;4.82;;
75616;SDS011;64200;55.426;37.758;2024-01-30T04:18:34;9.18;;;3.83;;
75616;SDS011;64200;55.426;37.758;2024-01-30T04:23:35;10.30;;;5.45;;
75616;SDS011;64200;55.426;37.758;2024-01-30T04:28:35;11.60;;;4.90;;
75616;SDS011;64200;55.426;37.758;2024-01-30T04:33:36;14.23;;;5.67;;
75616;SDS011;64200;55.426;37.758;2024-01-30T04:38:37;11.07;;;5.90;;
75616;SDS011;64200;55.426;37.758;2024-01-30T04:43:41;9.23;;;4.28;;
75616;SDS011;64200;55.426;37.758;2024-01-30T04:48:41;8.27;;;3.70;;
75616;SDS011;64200;55.426;37.758;2024-01-30T04:53:42;12.95;;;5.38;;
75616;SDS011;64200;55.426;37.758;2024-01-30T04:58:42;8.90;;;4.70;;
75616;SDS011;64200;55.426;37.758;2024-01-30T05:03:43;9.67;;;4.53;;
75616;SDS011;64200;55.426;37.758;2024-01-30T05:08:44;9.98;;;5.15;;
75616;SDS011;64200;55.426;37.758;2024-01-30T05:13:44;9.13;;;4.93;;
75616;SDS011;64200;55.426;37.758;2024-01-30T05:18:45;11.20;;;5.18;;
75616;SDS011;64200;55.426;37.758;2024-01-30T05:23:45;10.37;;;5.80;;
75616;SDS011;64200;55.426;37.758;2024-01-30T05:28:46;10.32;;;5.68;;
75616;SDS011;64200;55.426;37.758;2024-01-30T05:33:46;11.00;;;5.13;;
75616;SDS011;64200;55.426;37.758;2024-01-30T05:38:47;9.53;;;4.17;;
75616;SDS011;64200;55.426;37.758;2024-01-30T05:43:47;8.50;;;4.15;;
75616;SDS011;64200;55.426;37.758;2024-01-30T05:48:48;9.27;;;4.75;;
75616;SDS011;64200;55.426;37.758;2024-01-30T05:53:48;11.63;;;5.97;;
75616;SDS011;64200;55.426;37.758;2024-01-30T05:58:49;9.63;;;4.00;;
75616;SDS011;64200;55.426;37.758;2024-01-30T06:03:53;11.32;;;5.95;;
75616;SDS011;64200;55.426;37.758;2024-01-30T06:08:53;10.27;;;4.70;;
75616;SDS011;64200;55.426;37.758;2024-01-30T06:13:56;11.15;;;5.40;;
75616;SDS011;64200;55.426;37.758;2024-01-30T06:18:56;9.57;;;4.93;;
75616;SDS011;64200;55.426;37.758;2024-01-30T06:23:57;11.23;;;5.30;;
75616;SDS011;64200;55.426;37.758;2024-01-30T06:28:58;11.95;;;5.22;;
75616;SDS011;64200;55.426;37.758;2024-01-30T06:33:58;8.33;;;4.90;;
75616;SDS011;64200;55.426;37.758;2024-01-30T06:38:59;12.63;;;5.97;;
75616;SDS011;64200;55.426;37.758;2024-01-30T06:43:59;10.43;;;5.13;;
75616;SDS011;64200;55.426;37.758;2024-01-30T06:49:02;8.77;;;4.28;;
75616;SDS011;64200;55.426;37.758;2024-01-30T06:54:02;10.90;;;5.32;;
75616;SDS011;64200;55.426;37.758;2024-01-30T06:59:03;10.32;;;5.70;;
75616;SDS011;64200;55.426;37.758;2024-01-30T07:04:04;11.70;;;5.47;;
75616;SDS011;64200;55.426;37.758;2024-01-30T07:09:04;8.73;;;4.60;;
75616;SDS011;64200;55.426;37.758;2024-01-30T07:14:05;14.60;;;6.07;;
75616;SDS011;64200;55.426;37.758;2024-01-30T07:19:05;10.80;;;5.90;;
75616;SDS011;64200;55.426;37.758;2024-01-30T07:24:06;11.15;;;5.10;;
75616;SDS011;64200;55.426;37.758;2024-01-30T07:29:07;12.50;;;5.45;;
75616;SDS011;64200;55.426;37.758;2024-01-30T07:34:08;11.13;;;5.17;;
75616;SDS011;64200;55.426;37.758;2024-01-30T07:39:09;11.45;;;5.72;;
75616;SDS011;64200;55.426;37.758;2024-01-30T07:44:10;8.55;;;4.93;;
75616;SDS011;64200;55.426;37.758;2024-01-30T07:49:11;10.80;;;5.10;;
75616;SDS011;64200;55.426;37.758;2024-01-30T07:54:14;10.70;;;5.35;;
75616;SDS011;64200;55.426;37.758;2024-01-30T07:59:15;10.80;;;4.97;;
75616;SDS011;64200;55.426;37.758;2024-01-30T08:04:16;10.05;;;4.75;;
75616;SDS011;64200;55.426;37.758;2024-01-30T08:09:17;8.82;;;4.70;;
75616;SDS011;64200;55.426;37.758;2024-01-30T08:14:18;7.30;;;4.07;;
75616;SDS011;64200;55.426;37.758;2024-01-30T08:19:18;12.73;;;6.17;;
75616;SDS011;64200;55.426;37.758;2024-01-30T08:24:19;11.00;;;4.30;;
75616;SDS011;64200;55.426;37.758;2024-01-30T08:29:20;9.77;;;4.72;;
75616;SDS011;64200;55.426;37.758;2024-01-30T08:34:20;8.60;;;3.95;;
75616;SDS011;64200;55.426;37.758;2024-01-30T08:39:21;9.27;;;4.87;;
75616;SDS011;64200;55.426;37.758;2024-01-30T08:44:21;10.80;;;4.80;;
75616;SDS011;64200;55.426;37.758;2024-01-30T08:49:22;9.23;;;4.80;;
75616;SDS011;64200;55.426;37.758;2024-01-30T08:54:23;11.17;;;4.77;;
75616;SDS011;64200;55.426;37.758;2024-01-30T08:59:24;9.77;;;4.80;;
75616;SDS011;64200;55.426;37.758;2024-01-30T09:04:24;9.17;;;4.90;;
75616;SDS011;64200;55.426;37.758;2024-01-30T09:09:25;14.43;;;5.40;;
75616;SDS011;64200;55.426;37.758;2024-01-30T09:14:26;9.97;;;4.33;;
75616;SDS011;64200;55.426;37.758;2024-01-30T09:19:26;11.90;;;5.63;;
75616;SDS011;64200;55.426;37.758;2024-01-30T09:24:27;13.83;;;5.43;;
75616;SDS011;64200;55.426;37.758;2024-01-30T09:29:28;14.13;;;5.63;;
75616;SDS011;64200;55.426;37.758;2024-01-30T09:34:28;9.90;;;4.57;;
75616;SDS011;64200;55.426;37.758;2024-01-30T09:39:29;11.30;;;4.57;;
75616;SDS011;64200;55.426;37.758;2024-01-30T09:44:29;8.50;;;4.37;;
75616;SDS011;64200;55.426;37.758;2024-01-30T09:49:31;11.07;;;5.10;;
75616;SDS011;64200;55.426;37.758;2024-01-30T09:54:33;10.32;;;5.43;;
75616;SDS011;64200;55.426;37.758;2024-01-30T09:59:35;10.75;;;5.15;;
75616;SDS011;64200;55.426;37.758;2024-01-30T10:04:35;9.87;;;4.33;;
75616;SDS011;64200;55.426;37.758;2024-01-30T10:09:36;11.77;;;5.70;;
75616;SDS011;64200;55.426;37.758;2024-01-30T10:14:37;11.77;;;4.75;;
75616;SDS011;64200;55.426;37.758;2024-01-30T10:19:42;12.88;;;6.13;;
75616;SDS011;64200;55.426;37.758;2024-01-30T10:24:42;12.93;;;4.87;;
75616;SDS011;64200;55.426;37.758;2024-01-30T10:29:48;9.75;;;4.55;;
75616;SDS011;64200;55.426;37.758;2024-01-30T10:34:48;12.55;;;5.35;;
75616;SDS011;64200;55.426;37.758;2024-01-30T10:39:49;13.17;;;6.10;;
75616;SDS011;64200;55.426;37.758;2024-01-30T10:49:59;11.15;;;5.57;;
75616;SDS011;64200;55.426;37.758;2024-01-30T10:55:00;15.60;;;6.28;;
75616;SDS011;64200;55.426;37.758;2024-01-30T11:00:01;9.98;;;5.57;;
75616;SDS011;64200;55.426;37.758;2024-01-30T11:05:10;11.50;;;5.95;;
75616;SDS011;64200;55.426;37.758;2024-01-30T11:10:11;12.25;;;5.25;;
75616;SDS011;64200;55.426;37.758;2024-01-30T11:15:15;11.23;;;5.82;;
75616;SDS011;64200;55.426;37.758;2024-01-30T11:25:22;11.45;;;6.22;;
75616;SDS011;64200;55.426;37.758;2024-01-30T11:30:32;12.52;;;5.90;;
75616;SDS011;64200;55.426;37.758;2024-01-30T11:35:33;14.95;;;6.28;;
75616;SDS011;64200;55.426;37.758;2024-01-30T11:40:36;13.35;;;5.97;;
75616;SDS011;64200;55.426;37.758;2024-01-30T11:45:38;11.90;;;5.57;;
75616;SDS011;64200;55.426;37.758;2024-01-30T11:50:39;19.90;;;7.75;;
75616;SDS011;64200;55.426;37.758;2024-01-30T11:55:41;14.52;;;5.88;;
75616;SDS011;64200;55.426;37.758;2024-01-30T12:00:41;15.13;;;6.38;;
75616;SDS011;64200;55.426;37.758;2024-01-30T12:05:42;17.65;;;6.82;;
75616;SDS011;64200;55.426;37.758;2024-01-30T12:10:43;23.83;;;9.95;;
75616;SDS011;64200;55.426;37.758;2024-01-30T12:15:44;15.40;;;5.97;;
75616;SDS011;64200;55.426;37.758;2024-01-30T12:20:44;13.27;;;6.40;;
75616;SDS011;64200;55.426;37.758;2024-01-30T12:25:45;13.45;;;6.28;;
75616;SDS011;64200;55.426;37.758;2024-01-30T12:30:45;12.23;;;5.87;;
75616;SDS011;64200;55.426;37.758;2024-01-30T12:35:46;14.55;;;5.45;;
75616;SDS011;64200;55.426;37.758;2024-01-30T12:40:56;16.80;;;6.43;;
75616;SDS011;64200;55.426;37.758;2024-01-30T12:45:58;12.25;;;5.43;;
75616;SDS011;64200;55.426;37.758;2024-01-30T12:50:59;14.10;;;6.65;;
75616;SDS011;64200;55.426;37.758;2024-01-30T12:56:00;12.73;;;5.88;;
75616;SDS011;64200;55.426;37.758;2024-01-30T13:01:00;14.30;;;6.38;;
75616;SDS011;64200;55.426;37.758;2024-01-30T13:06:01;15.75;;;6.65;;
75616;SDS011;64200;55.426;37.758;2024-01-30T13:11:03;17.80;;;6.38;;
75616;SDS011;64200;55.426;37.758;2024-01-30T13:16:03;13.25;;;6.30;;
75616;SDS011;64200;55.426;37.758;2024-01-30T13:21:04;11.02;;;5.60;;
75616;SDS011;64200;55.426;37.758;2024-01-30T13:26:05;16.77;;;6.50;;
75616;SDS011;64200;55.426;37.758;2024-01-30T13:31:06;19.52;;;8.82;;
75616;SDS011;64200;55.426;37.758;2024-01-30T13:36:07;16.98;;;6.75;;
75616;SDS011;64200;55.426;37.758;2024-01-30T13:41:10;16.25;;;7.22;;
75616;SDS011;64200;55.426;37.758;2024-01-30T13:46:10;14.37;;;6.30;;
75616;SDS011;64200;55.426;37.758;2024-01-30T13:51:13;13.63;;;4.70;;
75616;SDS011;64200;55.426;37.758;2024-01-30T13:56:13;15.50;;;6.15;;
75616;SDS011;64200;55.426;37.758;2024-01-30T14:01:14;17.00;;;6.77;;
75616;SDS011;64200;55.426;37.758;2024-01-30T14:06:14;10.82;;;6.10;;
75616;SDS011;64200;55.426;37.758;2024-01-30T14:11:15;15.20;;;6.05;;
75616;SDS011;64200;55.426;37.758;2024-01-30T14:16:16;17.60;;;7.18;;
75616;SDS011;64200;55.426;37.758;2024-01-30T14:21:16;19.67;;;7.47;;
75616;SDS011;64200;55.426;37.758;2024-01-30T14:26:17;18.10;;;7.82;;
75616;SDS011;64200;55.426;37.758;2024-01-30T14:31:18;31.02;;;12.13;;
75616;SDS011;64200;55.426;37.758;2024-01-30T14:36:20;21.55;;;9.82;;
75616;SDS011;64200;55.426;37.758;2024-01-30T14:41:20;19.48;;;7.85;;
75616;SDS011;64200;55.426;37.758;2024-01-30T14:46:21;18.77;;;7.97;;
75616;SDS011;64200;55.426;37.758;2024-01-30T14:51:22;15.88;;;7.25;;
75616;SDS011;64200;55.426;37.758;2024-01-30T14:56:22;14.60;;;6.00;;
75616;SDS011;64200;55.426;37.758;2024-01-30T15:01:23;17.10;;;6.72;;
75616;SDS011;64200;55.426;37.758;2024-01-30T15:06:24;18.52;;;7.53;;
75616;SDS011;64200;55.426;37.758;2024-01-30T15:11:25;13.63;;;6.05;;
75616;SDS011;64200;55.426;37.758;2024-01-30T15:16:25;17.08;;;6.18;;
75616;SDS011;64200;55.426;37.758;2024-01-30T15:21:26;14.97;;;6.67;;
75616;SDS011;64200;55.426;37.758;2024-01-30T15:26:26;15.38;;;6.30;;
75616;SDS011;64200;55.426;37.758;2024-01-30T15:31:27;14.02;;;5.93;;
75616;SDS011;64200;55.426;37.758;2024-01-30T15:36:31;15.50;;;6.80;;
75616;SDS011;64200;55.426;37.758;2024-01-30T15:41:31;17.30;;;7.30;;
75616;SDS011;64200;55.426;37.758;2024-01-30T15:46:32;17.83;;;6.50;;
75616;SDS011;64200;55.426;37.758;2024-01-30T15:51:33;20.98;;;8.43;;
75616;SDS011;64200;55.426;37.758;2024-01-30T15:56:34;15.82;;;7.47;;
75616;SDS011;64200;55.426;37.758;2024-01-30T16:01:35;18.23;;;7.47;;
75616;SDS011;64200;55.426;37.758;2024-01-30T16:06:35;18.20;;;7.67;;
75616;SDS011;64200;55.426;37.758;2024-01-30T16:11:36;18.92;;;7.63;;
75616;SDS011;64200;55.426;37.758;2024-01-30T16:16:37;13.57;;;6.78;;
75616;SDS011;64200;55.426;37.758;2024-01-30T16:21:38;18.48;;;7.65;;
75616;SDS011;64200;55.426;37.758;2024-01-30T16:26:39;17.58;;;7.63;;
75616;SDS011;64200;55.426;37.758;2024-01-30T16:31:40;17.83;;;8.13;;
75616;SDS011;64200;55.426;37.758;2024-01-30T16:36:40;15.18;;;7.28;;
75616;SDS011;64200;55.426;37.758;2024-01-30T16:41:43;21.45;;;7.78;;
75616;SDS011;64200;55.426;37.758;2024-01-30T16:46:44;17.95;;;8.80;;
75616;SDS011;64200;55.426;37.758;2024-01-30T16:51:44;27.05;;;11.23;;
75616;SDS011;64200;55.426;37.758;2024-01-30T16:56:45;31.07;;;14.50;;
75616;SDS011;64200;55.426;37.758;2024-01-30T17:01:48;26.55;;;13.55;;
75616;SDS011;64200;55.426;37.758;2024-01-30T17:06:48;31.65;;;14.55;;
75616;SDS011;64200;55.426;37.758;2024-01-30T17:11:49;31.77;;;13.10;;
75616;SDS011;64200;55.426;37.758;2024-01-30T17:16:49;46.77;;;18.77;;
75616;SDS011;64200;55.426;37.758;2024-01-30T17:21:52;34.70;;;14.45;;
75616;SDS011;64200;55.426;37.758;2024-01-30T17:26:52;23.95;;;10.95;;
75616;SDS011;64200;55.426;37.758;2024-01-30T17:31:53;19.03;;;7.97;;
75616;SDS011;64200;55.426;37.758;2024-01-30T17:36:53;19.57;;;10.17;;
75616;SDS011;64200;55.426;37.758;2024-01-30T17:41:54;21.27;;;10.00;;
75616;SDS011;64200;55.426;37.758;2024-01-30T17:46:54;21.93;;;10.23;;
75616;SDS011;64200;55.426;37.758;2024-01-30T17:51:55;22.88;;;10.52;;
75616;SDS011;64200;55.426;37.758;2024-01-30T17:56:56;27.60;;;11.00;;
75616;SDS011;64200;55.426;37.758;2024-01-30T18:01:56;26.02;;;11.35;;
75616;SDS011;64200;55.426;37.758;2024-01-30T18:06:57;23.05;;;9.88;;
75616;SDS011;64200;55.426;37.758;2024-01-30T18:11:58;22.40;;;9.77;;
75616;SDS011;64200;55.426;37.758;2024-01-30T18:16:58;19.63;;;10.10;;
75616;SDS011;64200;55.426;37.758;2024-01-30T18:21:59;29.15;;;10.18;;
75616;SDS011;64200;55.426;37.758;2024-01-30T18:26:59;20.95;;;9.13;;
75616;SDS011;64200;55.426;37.758;2024-01-30T18:32:00;20.90;;;8.57;;
75616;SDS011;64200;55.426;37.758;2024-01-30T18:37:01;23.60;;;10.15;;
75616;SDS011;64200;55.426;37.758;2024-01-30T18:42:01;23.65;;;9.82;;
75616;SDS011;64200;55.426;37.758;2024-01-30T18:47:02;26.38;;;9.38;;
75616;SDS011;64200;55.426;37.758;2024-01-30T18:52:02;22.67;;;9.95;;
75616;SDS011;64200;55.426;37.758;2024-01-30T18:57:04;21.35;;;9.15;;
75616;SDS011;64200;55.426;37.758;2024-01-30T19:02:05;26.17;;;10.33;;
75616;SDS011;64200;55.426;37.758;2024-01-30T19:07:09;20.92;;;9.30;;
75616;SDS011;64200;55.426;37.758;2024-01-30T19:12:18;26.60;;;11.37;;
75616;SDS011;64200;55.426;37.758;2024-01-30T19:17:19;23.48;;;9.70;;
75616;SDS011;64200;55.426;37.758;2024-01-30T19:22:23;20.30;;;9.70;;
75616;SDS011;64200;55.426;37.758;2024-01-30T19:27:29;20.10;;;8.95;;
75616;SDS011;64200;55.426;37.758;2024-01-30T19:32:36;23.83;;;8.68;;
75616;SDS011;64200;55.426;37.758;2024-01-30T19:37:37;23.33;;;9.45;;
75616;SDS011;64200;55.426;37.758;2024-01-30T19:42:40;21.90;;;9.75;;
75616;SDS011;64200;55.426;37.758;2024-01-30T19:47:41;22.88;;;9.73;;
75616;SDS011;64200;55.426;37.758;2024-01-30T19:52:42;20.33;;;9.10;;
75616;SDS011;64200;55.426;37.758;2024-01-30T19:57:43;17.83;;;8.82;;
75616;SDS011;64200;55.426;37.758;2024-01-30T20:02:47;21.75;;;9.20;;
75616;SDS011;64200;55.426;37.758;2024-01-30T20:07:48;21.60;;;9.23;;
75616;SDS011;64200;55.426;37.758;2024-01-30T20:12:48;24.38;;;10.05;;
75616;SDS011;64200;55.426;37.758;2024-01-30T20:17:53;28.52;;;10.95;;
75616;SDS011;64200;55.426;37.758;2024-01-30T20:22:53;21.07;;;9.70;;
75616;SDS011;64200;55.426;37.758;2024-01-30T20:27:54;23.37;;;10.33;;
75616;SDS011;64200;55.426;37.758;2024-01-30T20:32:55;26.00;;;10.17;;
75616;SDS011;64200;55.426;37.758;2024-01-30T20:37:55;23.90;;;10.60;;
75616;SDS011;64200;55.426;37.758;2024-01-30T20:42:59;23.00;;;9.68;;
75616;SDS011;64200;55.426;37.758;2024-01-30T20:48:00;26.00;;;11.68;;
75616;SDS011;64200;55.426;37.758;2024-01-30T20:53:03;28.08;;;11.98;;
75616;SDS011;64200;55.426;37.758;2024-01-30T20:58:05;22.75;;;9.88;;
75616;SDS011;64200;55.426;37.758;2024-01-30T21:03:05;21.38;;;10.32;;
75616;SDS011;64200;55.426;37.758;2024-01-30T21:08:09;25.15;;;10.80;;
75616;SDS011;64200;55.426;37.758;2024-01-30T21:13:12;23.98;;;10.05;;
75616;SDS011;64200;55.426;37.758;2024-01-30T21:18:13;23.47;;;10.33;;
75616;SDS011;64200;55.426;37.758;2024-01-30T21:23:17;25.35;;;11.40;;
75616;SDS011;64200;55.426;37.758;2024-01-30T21:28:18;23.20;;;10.75;;
75616;SDS011;64200;55.426;37.758;2024-01-30T21:33:20;23.98;;;10.05;;
75616;SDS011;64200;55.426;37.758;2024-01-30T21:38:26;19.60;;;9.32;;
75616;SDS011;64200;55.426;37.758;2024-01-30T21:43:28;21.17;;;9.85;;
75616;SDS011;64200;55.426;37.758;2024-01-30T21:48:28;24.48;;;10.20;;
75616;SDS011;64200;55.426;37.758;2024-01-30T21:53:29;21.60;;;8.85;;
75616;SDS011;64200;55.426;37.758;2024-01-30T21:58:29;18.42;;;8.40;;
75616;SDS011;64200;55.426;37.758;2024-01-30T22:03:31;23.75;;;9.10;;
75616;SDS011;64200;55.426;37.758;2024-01-30T22:08:31;22.93;;;10.73;;
75616;SDS011;64200;55.426;37.758;2024-01-30T22:13:32;23.33;;;10.63;;
75616;SDS011;64200;55.426;37.758;2024-01-30T22:18:32;23.25;;;10.30;;
75616;SDS011;64200;55.426;37.758;2024-01-30T22:23:33;26.83;;;10.82;;
75616;SDS011;64200;55.426;37.758;2024-01-30T22:28:34;21.65;;;10.48;;
75616;SDS011;64200;55.426;37.758;2024-01-30T22:33:35;20.88;;;9.82;;
75616;SDS011;64200;55.426;37.758;2024-01-30T22:38:35;26.42;;;10.55;;
75616;SDS011;64200;55.426;37.758;2024-01-30T22:43:36;24.17;;;10.18;;
75616;SDS011;64200;55.426;37.758;2024-01-30T22:48:36;29.23;;;11.30;;
75616;SDS011;64200;55.426;37.758;2024-01-30T22:53:37;19.75;;;10.10;;
75616;SDS011;64200;55.426;37.758;2024-01-30T22:58:38;25.30;;;11.57;;
75616;SDS011;64200;55.426;37.758;2024-01-30T23:03:38;26.08;;;11.18;;
75616;SDS011;64200;55.426;37.758;2024-01-30T23:08:39;20.50;;;9.47;;
75616;SDS011;64200;55.426;37.758;2024-01-30T23:13:40;20.73;;;10.70;;
75616;SDS011;64200;55.426;37.758;2024-01-30T23:18:41;23.20;;;10.00;;
75616;SDS011;64200;55.426;37.758;2024-01-30T23:23:41;22.90;;;10.43;;
75616;SDS011;64200;55.426;37.758;2024-01-30T23:28:42;20.30;;;8.30;;
75616;SDS011;64200;55.426;37.758;2024-01-30T23:33:43;25.63;;;10.98;;
75616;SDS011;64200;55.426;37.758;2024-01-30T23:38:43;20.30;;;8.83;;
75616;SDS011;64200;55.426;37.758;2024-01-30T23:43:44;21.47;;;9.43;;
75616;SDS011;64200;55.426;37.758;2024-01-30T23:48:44;25.67;;;10.30;;
75616;SDS011;64200;55.426;37.758;2024-01-30T23:53:45;21.53;;;10.43;;
75616;SDS011;64200;55.426;37.758;2024-01-30T23:58:45;22.13;;;10.70;;
